createdAt,value
2023-03-08T00:00:32.828Z,2.60
2023-03-08T00:03:02.796Z,2.80
2023-03-08T00:07:59.232Z,2.80
2023-03-08T00:10:27.337Z,2.80
2023-03-08T00:12:55.342Z,2.90
2023-03-08T00:15:23.393Z,2.90
2023-03-08T00:17:51.535Z,3.00
2023-03-08T00:20:21.105Z,3.00
2023-03-08T00:22:49.160Z,2.90
2023-03-08T00:25:17.554Z,3.00
2023-03-08T00:27:45.659Z,3.00
2023-03-08T00:30:14.896Z,3.00
2023-03-08T00:32:43.242Z,3.00
2023-03-08T00:35:11.301Z,3.00
2023-03-08T00:37:40.795Z,3.00
2023-03-08T00:40:10.460Z,3.10
2023-03-08T00:42:39.844Z,3.10
2023-03-08T00:45:09.171Z,3.20
2023-03-08T00:47:37.661Z,3.20
2023-03-08T00:50:06.553Z,3.20
2023-03-08T00:52:34.752Z,3.20
2023-03-08T00:55:04.309Z,3.20
2023-03-08T00:57:33.413Z,3.20
2023-03-08T01:00:02.251Z,3.20
2023-03-08T01:02:30.298Z,3.20
2023-03-08T01:04:58.253Z,3.20
2023-03-08T01:07:28.520Z,3.20
2023-03-08T01:09:57.004Z,3.20
2023-03-08T01:12:28.525Z,3.20
2023-03-08T01:14:56.615Z,3.20
2023-03-08T01:17:24.789Z,3.20
2023-03-08T01:19:52.873Z,3.10
2023-03-08T01:22:21.039Z,3.90
2023-03-08T01:24:50.114Z,3.10
2023-03-08T01:27:18.471Z,3.10
2023-03-08T01:29:48.220Z,5.10
2023-03-08T01:32:16.329Z,3.10
2023-03-08T01:34:44.280Z,3.00
2023-03-08T01:37:12.362Z,3.00
2023-03-08T01:39:40.419Z,2.90
2023-03-08T01:44:56.714Z,2.90
2023-03-08T01:47:26.092Z,2.80
2023-03-08T01:49:56.078Z,2.80
2023-03-08T01:52:28.365Z,2.80
2023-03-08T01:54:59.219Z,2.80
2023-03-08T01:57:31.184Z,2.80
2023-03-08T02:00:08.473Z,2.80
2023-03-08T02:02:42.859Z,2.80
2023-03-08T02:05:12.175Z,2.80
2023-03-08T02:07:40.301Z,2.80
2023-03-08T02:10:09.908Z,2.80
2023-03-08T02:12:38.586Z,2.80
2023-03-08T02:15:11.385Z,2.80
2023-03-08T02:17:41.128Z,3.20
2023-03-08T02:20:15.098Z,2.70
2023-03-08T02:22:45.671Z,2.70
2023-03-08T02:25:15.663Z,2.70
2023-03-08T02:30:14.743Z,2.60
2023-03-08T02:32:43.086Z,2.50
2023-03-08T02:37:39.741Z,2.50
2023-03-08T02:40:11.596Z,2.40
2023-03-08T02:42:39.816Z,2.30
2023-03-08T02:45:09.297Z,2.20
2023-03-08T02:47:37.727Z,2.20
2023-03-08T02:50:06.402Z,2.20
2023-03-08T02:52:34.497Z,2.20
2023-03-08T02:57:32.220Z,2.30
2023-03-08T03:00:00.266Z,2.30
2023-03-08T03:04:56.657Z,2.20
2023-03-08T03:07:24.768Z,2.10
2023-03-08T03:12:21.313Z,2.10
2023-03-08T03:14:50.700Z,2.00
2023-03-08T03:17:18.687Z,2.10
2023-03-08T03:22:15.147Z,2.10
2023-03-08T03:24:43.468Z,2.10
2023-03-08T03:27:11.423Z,2.20
2023-03-08T03:29:39.465Z,2.10
2023-03-08T03:32:09.552Z,2.10
2023-03-08T03:37:06.111Z,2.00
2023-03-08T03:39:37.987Z,1.90
2023-03-08T03:42:06.480Z,-1.10
2023-03-08T03:44:34.689Z,1.90
2023-03-08T03:47:02.701Z,1.80
2023-03-08T03:49:32.076Z,1.80
2023-03-08T03:52:00.493Z,1.80
2023-03-08T04:04:24.003Z,1.60
2023-03-08T04:06:53.412Z,1.50
2023-03-08T04:11:50.381Z,1.30
2023-03-08T04:14:40.258Z,1.20
2023-03-08T04:17:28.285Z,1.10
2023-03-08T04:20:16.285Z,1.00
2023-03-08T04:23:05.642Z,0.90
2023-03-08T04:25:33.684Z,0.80
2023-03-08T04:28:01.673Z,0.80
2023-03-08T04:30:30.874Z,0.80
2023-03-08T04:32:58.817Z,0.70
2023-03-08T04:40:24.844Z,1.00
2023-03-08T04:42:52.860Z,1.10
2023-03-08T04:45:20.895Z,1.10
2023-03-08T04:47:49.060Z,1.10
2023-03-08T04:55:13.816Z,1.30
2023-03-08T04:57:43.260Z,1.30
2023-03-08T05:00:12.838Z,1.30
2023-03-08T05:02:40.856Z,1.30
2023-03-08T05:05:09.262Z,1.30
2023-03-08T05:07:37.355Z,1.30
2023-03-08T05:10:05.914Z,1.30
2023-03-08T05:12:33.873Z,1.30
2023-03-08T05:15:03.539Z,1.20
2023-03-08T05:17:31.523Z,1.10
2023-03-08T05:27:24.776Z,0.80
2023-03-08T05:32:22.790Z,0.70
2023-03-08T05:39:48.779Z,0.70
2023-03-08T05:42:17.025Z,0.70
2023-03-08T05:47:13.785Z,0.70
2023-03-08T05:49:43.102Z,0.70
2023-03-08T05:57:08.187Z,0.70
2023-03-08T05:59:36.236Z,0.80
2023-03-08T06:02:04.304Z,0.80
2023-03-08T06:07:02.004Z,0.90
2023-03-08T06:09:30.151Z,0.90
2023-03-08T06:14:26.794Z,1.10
2023-03-08T06:19:23.259Z,1.20
2023-03-08T06:21:51.278Z,1.20
2023-03-08T06:24:20.783Z,1.30
2023-03-08T06:31:45.428Z,1.40
2023-03-08T06:34:13.727Z,1.40
2023-03-08T06:36:41.902Z,1.40
2023-03-08T06:39:10.336Z,1.40
2023-03-08T06:41:39.948Z,1.50
2023-03-08T06:44:07.971Z,1.60
2023-03-08T06:51:32.932Z,1.90
2023-03-08T06:54:00.860Z,2.00
2023-03-08T06:58:58.724Z,2.00
2023-03-08T07:03:55.228Z,2.10
2023-03-08T07:06:23.592Z,2.10
2023-03-08T07:13:48.266Z,2.20
2023-03-08T07:16:17.629Z,2.30
2023-03-08T07:18:45.811Z,2.30
2023-03-08T07:21:13.859Z,2.40
2023-03-08T07:26:11.192Z,2.60
2023-03-08T07:28:39.176Z,2.60
2023-03-08T07:31:07.234Z,2.60
2023-03-08T07:33:36.638Z,2.70
2023-03-08T07:36:05.300Z,2.80
2023-03-08T07:38:33.382Z,2.80
2023-03-08T07:41:01.704Z,2.90
2023-03-08T07:43:29.644Z,2.90
2023-03-08T07:46:01.277Z,3.00
2023-03-08T07:48:29.552Z,3.10
2023-03-08T07:51:03.398Z,3.10
2023-03-08T07:53:31.947Z,3.20
2023-03-08T07:56:00.460Z,3.20
2023-03-08T07:58:29.648Z,3.10
2023-03-08T08:00:57.701Z,3.20
2023-03-08T08:03:25.958Z,3.30
2023-03-08T08:08:23.718Z,2.50
2023-03-08T08:15:48.412Z,3.80
2023-03-08T08:18:16.374Z,3.80
2023-03-08T08:20:44.569Z,3.70
2023-03-08T08:23:12.696Z,3.90
2023-03-08T08:25:43.673Z,3.90
2023-03-08T08:35:43.425Z,4.20
2023-03-08T08:38:11.718Z,4.30
2023-03-08T08:43:09.438Z,4.60
2023-03-08T08:45:37.591Z,4.70
2023-03-08T08:48:05.875Z,4.60
2023-03-08T08:53:02.383Z,4.60
2023-03-08T08:55:30.430Z,4.50
2023-03-08T09:00:28.260Z,4.60
2023-03-08T09:02:56.219Z,4.60
2023-03-08T09:05:24.258Z,4.60
2023-03-08T09:07:55.064Z,4.50
2023-03-08T09:10:23.429Z,4.40
2023-03-08T09:12:51.463Z,4.30
2023-03-08T09:15:19.923Z,4.20
2023-03-08T09:17:49.477Z,4.00
2023-03-08T09:20:18.106Z,3.90
2023-03-08T09:25:15.577Z,2.90
2023-03-08T09:27:45.307Z,3.90
2023-03-08T09:30:15.262Z,3.90
2023-03-08T09:32:43.508Z,3.80
2023-03-08T09:35:13.055Z,3.80
2023-03-08T09:40:18.854Z,4.00
2023-03-08T09:42:46.967Z,3.90
2023-03-08T09:45:23.265Z,3.90
2023-03-08T09:47:56.807Z,3.80
2023-03-08T09:50:49.618Z,3.80
2023-03-08T09:53:26.280Z,3.70
2023-03-08T09:55:57.793Z,3.70
2023-03-08T09:58:36.443Z,3.70
2023-03-08T10:01:16.861Z,3.60
2023-03-08T10:04:09.856Z,3.50
2023-03-08T10:06:47.311Z,3.50
2023-03-08T10:09:28.010Z,3.40
2023-03-08T10:12:01.829Z,3.40
2023-03-08T10:14:33.955Z,3.30
2023-03-08T10:17:05.357Z,3.30
2023-03-08T10:19:38.538Z,3.20
2023-03-08T10:22:16.437Z,3.20
2023-03-08T10:24:50.129Z,3.10
2023-03-08T10:27:22.360Z,3.20
2023-03-08T10:29:52.187Z,3.20
2023-03-08T10:32:20.377Z,3.20
2023-03-08T10:34:48.659Z,3.10
2023-03-08T10:37:18.348Z,3.10
2023-03-08T10:39:53.339Z,3.20
2023-03-08T10:42:24.124Z,3.10
2023-03-08T10:44:59.381Z,3.10
2023-03-08T10:47:29.483Z,3.10
2023-03-08T10:50:13.902Z,3.10
2023-03-08T10:52:44.469Z,2.90
2023-03-08T10:55:15.259Z,3.00
2023-03-08T10:57:49.183Z,3.00
2023-03-08T11:00:33.064Z,2.90
2023-03-08T11:03:15.078Z,2.90
2023-03-08T11:05:53.716Z,2.90
2023-03-08T11:08:25.636Z,2.90
2023-03-08T11:11:09.089Z,2.90
2023-03-08T11:13:38.932Z,2.90
2023-03-08T11:16:17.170Z,2.90
2023-03-08T11:18:58.858Z,3.00
2023-03-08T11:21:33.902Z,3.00
2023-03-08T11:24:18.416Z,3.00
2023-03-08T11:27:00.045Z,3.00
2023-03-08T11:29:36.861Z,3.00
2023-03-08T11:32:18.205Z,3.10
2023-03-08T11:35:09.371Z,3.00
2023-03-08T11:37:44.254Z,3.00
2023-03-08T11:40:23.800Z,3.00
2023-03-08T11:43:20.181Z,3.00
2023-03-08T11:45:55.059Z,3.50
2023-03-08T11:48:53.328Z,3.20
2023-03-08T11:51:26.888Z,3.10
2023-03-08T11:54:09.377Z,3.20
2023-03-08T11:56:52.161Z,3.30
2023-03-08T11:59:30.836Z,3.30
2023-03-08T12:02:03.892Z,3.40
2023-03-08T12:04:38.705Z,3.40
2023-03-08T12:07:10.837Z,3.40
2023-03-08T12:09:44.355Z,3.50
2023-03-08T12:12:19.566Z,3.60
2023-03-08T12:14:53.036Z,3.60
2023-03-08T12:17:26.024Z,3.70
2023-03-08T12:19:54.775Z,3.90
2023-03-08T12:22:33.629Z,3.90
2023-03-08T12:25:09.027Z,4.00
2023-03-08T12:27:45.092Z,4.00
2023-03-08T12:30:21.107Z,4.10
2023-03-08T12:32:50.667Z,4.30
2023-03-08T12:35:31.091Z,4.50
2023-03-08T12:38:01.677Z,4.50
2023-03-08T12:40:39.599Z,4.50
2023-03-08T12:43:12.651Z,4.60
2023-03-08T12:48:23.797Z,4.70
2023-03-08T12:51:00.510Z,4.70
2023-03-08T12:53:36.210Z,4.80
2023-03-08T12:56:08.211Z,4.90
2023-03-08T12:58:40.129Z,4.90
2023-03-08T13:01:24.822Z,4.90
2023-03-08T13:03:52.859Z,4.90
2023-03-08T13:07:03.490Z,5.00
2023-03-08T13:09:35.132Z,5.10
2023-03-08T13:12:18.989Z,5.10
2023-03-08T13:15:01.501Z,3.70
2023-03-08T13:17:40.331Z,5.30
2023-03-08T13:20:18.474Z,5.50
2023-03-08T13:22:57.844Z,5.50
2023-03-08T13:25:40.055Z,5.60
2023-03-08T13:28:11.115Z,5.80
2023-03-08T13:30:47.319Z,5.90
2023-03-08T13:33:19.058Z,5.90
2023-03-08T13:35:56.449Z,6.00
2023-03-08T13:38:25.951Z,6.00
2023-03-08T13:40:55.439Z,6.00
2023-03-08T13:43:24.215Z,6.00
2023-03-08T13:45:55.740Z,6.10
2023-03-08T13:48:25.884Z,6.10
2023-03-08T13:50:54.088Z,6.00
2023-03-08T13:53:24.857Z,6.00
2023-03-08T13:55:56.641Z,6.00
2023-03-08T13:58:32.353Z,6.10
2023-03-08T14:01:04.335Z,6.10
2023-03-08T14:03:33.507Z,6.20
2023-03-08T14:06:02.091Z,6.20
2023-03-08T14:08:30.295Z,6.10
2023-03-08T14:11:01.511Z,6.10
2023-03-08T14:13:32.171Z,6.20
2023-03-08T14:16:03.498Z,6.20
2023-03-08T14:18:34.386Z,6.30
2023-03-08T14:21:05.530Z,6.40
2023-03-08T14:23:38.721Z,6.40
2023-03-08T14:28:41.280Z,6.70
2023-03-08T14:31:26.957Z,6.80
2023-03-08T14:33:59.926Z,7.00
2023-03-08T14:36:29.153Z,7.00
2023-03-08T14:38:59.973Z,7.10
2023-03-08T14:41:33.463Z,7.10
2023-03-08T14:44:02.496Z,7.00
2023-03-08T14:46:32.930Z,7.10
2023-03-08T14:49:02.855Z,7.20
2023-03-08T14:51:37.646Z,7.20
2023-03-08T14:54:08.291Z,7.30
2023-03-08T14:59:05.903Z,7.50
2023-03-08T15:01:37.509Z,7.60
2023-03-08T15:04:14.068Z,7.60
2023-03-08T15:06:43.836Z,7.80
2023-03-08T15:09:14.426Z,7.80
2023-03-08T15:14:12.454Z,8.10
2023-03-08T15:16:42.004Z,8.10
2023-03-08T15:19:12.044Z,8.10
2023-03-08T15:24:11.516Z,8.10
2023-03-08T15:26:39.575Z,8.20
2023-03-08T15:31:36.159Z,8.40
2023-03-08T15:34:05.677Z,8.50
2023-03-08T15:36:35.599Z,8.60
2023-03-08T15:39:04.662Z,8.60
2023-03-08T15:44:01.257Z,8.90
2023-03-08T15:46:29.362Z,9.00
2023-03-08T15:48:57.403Z,9.00
2023-03-08T15:51:31.307Z,9.10
2023-03-08T15:58:56.766Z,9.40
2023-03-08T16:01:27.059Z,9.20
2023-03-08T16:03:56.382Z,10.50
2023-03-08T16:06:26.266Z,9.10
2023-03-08T16:11:22.875Z,8.90
2023-03-08T16:13:52.555Z,8.90
2023-03-08T16:16:21.447Z,8.80
2023-03-08T16:18:49.529Z,8.60
2023-03-08T16:21:17.944Z,8.60
2023-03-08T16:23:47.337Z,8.50
2023-03-08T16:26:17.808Z,8.40
2023-03-08T16:28:47.269Z,8.30
2023-03-08T16:31:16.920Z,8.30
2023-03-08T16:33:44.926Z,8.20
2023-03-08T16:36:13.384Z,8.20
2023-03-08T16:38:41.875Z,8.20
2023-03-08T16:41:13.960Z,8.20
2023-03-08T16:43:49.969Z,8.10
2023-03-08T16:46:19.891Z,8.10
2023-03-08T16:48:49.518Z,8.00
2023-03-08T16:51:19.007Z,7.90
2023-03-08T16:53:47.458Z,7.80
2023-03-08T16:56:20.266Z,7.80
2023-03-08T16:58:48.343Z,7.70
2023-03-08T17:01:17.875Z,7.60
2023-03-08T17:03:45.884Z,7.50
2023-03-08T17:06:17.078Z,7.50
2023-03-08T17:08:45.063Z,7.40
2023-03-08T17:11:16.923Z,7.40
2023-03-08T17:13:50.879Z,7.30
2023-03-08T17:16:19.149Z,7.30
2023-03-08T17:18:47.158Z,7.20
2023-03-08T17:26:14.154Z,7.20
2023-03-08T17:31:30.688Z,7.20
2023-03-08T17:41:24.666Z,7.30
2023-03-08T17:46:24.686Z,7.10
2023-03-08T17:48:53.282Z,7.20
2023-03-08T17:51:22.904Z,7.30
2023-03-08T17:53:51.001Z,7.30
2023-03-08T17:56:21.348Z,7.30
2023-03-08T17:58:50.095Z,7.30
2023-03-08T18:01:20.148Z,7.30
2023-03-08T18:03:49.623Z,7.40
2023-03-08T18:06:28.151Z,7.30
2023-03-08T18:08:56.498Z,7.30
2023-03-08T18:11:24.510Z,7.30
2023-03-08T18:13:53.105Z,7.20
2023-03-08T18:16:23.203Z,7.20
2023-03-08T18:18:52.892Z,6.10
2023-03-08T18:21:22.181Z,7.20
2023-03-08T18:23:50.760Z,7.30
2023-03-08T18:26:19.502Z,7.80
2023-03-08T18:28:48.023Z,7.90
2023-03-08T18:31:18.048Z,8.30
2023-03-08T18:33:46.099Z,9.00
2023-03-08T18:36:15.533Z,9.20
2023-03-08T18:38:44.163Z,9.30
2023-03-08T18:41:14.040Z,9.30
2023-03-08T18:43:42.567Z,9.30
2023-03-08T18:46:12.580Z,9.30
2023-03-08T18:48:41.792Z,9.10
2023-03-08T18:51:09.872Z,9.00
2023-03-08T18:53:39.233Z,8.80
2023-03-08T18:56:08.117Z,8.90
2023-03-08T18:58:36.173Z,9.50
2023-03-08T19:03:32.692Z,10.10
2023-03-08T19:06:03.182Z,10.10
2023-03-08T19:11:10.292Z,10.20
2023-03-08T19:16:19.423Z,10.10
2023-03-08T19:18:48.478Z,10.10
2023-03-08T19:21:17.851Z,10.00
2023-03-08T19:26:48.520Z,9.80
2023-03-08T19:29:18.366Z,9.90
2023-03-08T19:31:49.701Z,9.80
2023-03-08T19:34:18.598Z,9.90
2023-03-08T19:36:48.001Z,9.70
2023-03-08T19:39:20.103Z,9.70
2023-03-08T19:41:51.247Z,9.70
2023-03-08T19:44:20.074Z,9.80
2023-03-08T19:46:51.116Z,9.70
2023-03-08T19:49:22.554Z,9.70
2023-03-08T19:51:51.537Z,9.60
2023-03-08T19:54:20.651Z,9.60
2023-03-08T19:56:50.502Z,9.60
2023-03-08T20:06:46.651Z,9.50
2023-03-08T20:09:18.357Z,9.60
2023-03-08T20:11:46.434Z,9.60
2023-03-08T20:14:15.804Z,9.50
2023-03-08T20:21:40.816Z,9.60
2023-03-08T20:26:39.069Z,9.50
2023-03-08T20:31:37.024Z,9.50
2023-03-08T20:36:33.685Z,9.60
2023-03-08T20:39:02.520Z,9.70
2023-03-08T20:43:59.171Z,9.70
2023-03-08T20:46:31.113Z,9.70
2023-03-08T20:49:00.544Z,9.70
2023-03-08T20:51:29.093Z,9.70
2023-03-08T20:53:57.799Z,9.60
2023-03-08T20:56:27.141Z,9.40
2023-03-08T20:58:57.983Z,9.20
2023-03-08T21:01:28.811Z,9.10
2023-03-08T21:06:28.297Z,9.10
2023-03-08T21:13:54.161Z,9.00
2023-03-08T21:16:24.466Z,8.90
2023-03-08T21:18:53.702Z,9.10
2023-03-08T21:21:24.259Z,9.10
2023-03-08T21:23:54.426Z,9.00
2023-03-08T21:41:21.165Z,8.60
2023-03-08T21:48:47.489Z,8.10
2023-03-08T21:51:16.435Z,8.50
2023-03-08T21:53:45.379Z,8.50
2023-03-08T21:56:15.468Z,8.50
2023-03-08T21:58:46.063Z,8.50
2023-03-08T22:01:22.017Z,8.50
2023-03-08T22:03:50.496Z,8.50
2023-03-08T22:06:19.237Z,8.50
2023-03-08T22:08:47.930Z,8.60
2023-03-08T22:13:50.240Z,8.60
2023-03-08T22:16:18.447Z,8.60
2023-03-08T22:21:15.334Z,8.70
2023-03-08T22:23:43.373Z,8.70
2023-03-08T22:26:11.970Z,8.80
2023-03-08T22:28:40.096Z,8.90
2023-03-08T22:31:14.802Z,8.90
2023-03-08T22:33:43.566Z,8.80
2023-03-08T22:36:13.282Z,8.90
2023-03-08T22:38:41.727Z,8.90
2023-03-08T22:41:12.595Z,8.90
2023-03-08T22:43:41.274Z,8.90
2023-03-08T22:46:10.791Z,8.80
2023-03-08T22:48:40.485Z,8.90
2023-03-08T22:51:11.476Z,8.80
2023-03-08T22:53:40.081Z,8.80
2023-03-08T22:56:09.630Z,8.80
2023-03-08T22:58:37.674Z,8.70
2023-03-08T23:03:34.206Z,8.70
2023-03-08T23:06:03.706Z,8.70
2023-03-08T23:13:34.002Z,8.80
2023-03-08T23:16:03.087Z,8.80
2023-03-08T23:21:04.857Z,8.80
2023-03-08T23:23:33.126Z,8.80
2023-03-08T23:28:29.408Z,8.80
2023-03-08T23:38:23.843Z,8.80
2023-03-08T23:40:51.800Z,8.70
2023-03-08T23:45:48.346Z,8.70
2023-03-08T23:48:16.381Z,8.70
2023-03-08T23:50:44.350Z,8.70
2023-03-08T23:53:12.422Z,8.70
2023-03-08T23:55:42.467Z,8.60
2023-03-08T23:58:10.483Z,8.60
